Time;durP1;ratioP1;P1;durP2;ratioP2;P2;SDS_P1;SDS_P2;PMS_P1;PMS_P2;Temp;Humidity;BMP_temperature;BMP_pressure;BME280_temperature;BME280_humidity;BME280_pressure;Samples;Min_cycle;Max_cycle;Signal;HPM_P1;HPM_P2
2021/07/16 00:01:56;;;;;;;19.48;9.55;;;21.20;98.50;;;;;;5109398;28;20036;-84
2021/07/16 00:04:22;;;;;;;18.17;9.15;;;21.10;98.10;;;;;;5109468;28;20032;-82
2021/07/16 00:06:48;;;;;;;18.35;8.95;;;21.10;98.10;;;;;;5107475;28;20132;-81
2021/07/16 00:09:13;;;;;;;17.58;9.68;;;21.00;98.30;;;;;;5108854;28;20495;-83
2021/07/16 00:11:40;;;;;;;24.58;9.68;;;21.00;98.40;;;;;;5107279;28;20034;-84
2021/07/16 00:14:06;;;;;;;15.02;7.75;;;21.00;98.30;;;;;;5109096;28;20028;-83
2021/07/16 00:16:32;;;;;;;11.05;7.07;;;21.00;98.00;;;;;;5107772;28;20237;-83
2021/07/16 00:18:58;;;;;;;14.10;7.43;;;21.10;97.50;;;;;;5107381;28;20031;-82
2021/07/16 00:21:24;;;;;;;17.98;7.97;;;21.10;97.30;;;;;;5108950;28;20041;-79
2021/07/16 00:23:50;;;;;;;20.73;8.02;;;21.10;97.10;;;;;;5108643;28;20027;-84
2021/07/16 00:26:17;;;;;;;13.38;8.15;;;21.10;97.00;;;;;;5108953;28;20020;-82
2021/07/16 00:28:44;;;;;;;16.65;8.18;;;21.10;97.30;;;;;;5108665;28;20515;-84
2021/07/16 00:31:10;;;;;;;15.63;8.68;;;21.10;97.30;;;;;;5107180;28;20023;-84
2021/07/16 00:33:36;;;;;;;12.80;8.13;;;21.00;97.60;;;;;;5106829;28;20052;-83
2021/07/16 00:36:02;;;;;;;15.05;7.18;;;21.10;97.40;;;;;;5108559;28;20159;-84
2021/07/16 00:38:27;;;;;;;18.13;10.43;;;21.10;97.30;;;;;;5106891;28;20646;-81
2021/07/16 00:40:53;;;;;;;25.33;10.18;;;21.10;97.80;;;;;;5106578;28;20031;-83
2021/07/16 00:43:18;;;;;;;14.20;9.27;;;21.20;98.00;;;;;;5108228;28;20032;-82
2021/07/16 00:45:44;;;;;;;25.50;11.50;;;21.30;98.20;;;;;;5106874;28;20024;-83
2021/07/16 00:48:10;;;;;;;15.23;11.65;;;21.20;98.70;;;;;;5106959;28;20052;-83
2021/07/16 00:50:39;;;;;;;16.98;10.57;;;21.30;99.10;;;;;;5107585;28;20027;-86
2021/07/16 00:53:06;;;;;;;18.15;11.02;;;21.40;99.00;;;;;;5108928;28;20038;-82
2021/07/16 00:55:32;;;;;;;13.07;11.23;;;21.40;99.00;;;;;;5107453;28;20039;-83
2021/07/16 00:57:58;;;;;;;14.57;10.70;;;21.50;98.90;;;;;;5106735;28;20580;-84
2021/07/16 01:00:25;;;;;;;16.42;10.15;;;21.50;98.80;;;;;;5107540;28;20027;-83
2021/07/16 01:02:51;;;;;;;16.02;11.13;;;21.50;98.70;;;;;;5107785;28;20038;-85
2021/07/16 01:05:19;;;;;;;18.38;11.50;;;21.40;98.80;;;;;;5107070;28;20138;-83
2021/07/16 01:07:47;;;;;;;24.33;13.35;;;21.40;99.20;;;;;;5107636;28;20059;-84
2021/07/16 01:10:14;;;;;;;21.02;13.55;;;21.50;99.80;;;;;;5106631;28;20015;-83
2021/07/16 01:12:41;;;;;;;18.48;11.88;;;21.60;99.90;;;;;;5107241;28;20027;-80
2021/07/16 01:15:08;;;;;;;21.83;12.23;;;21.70;99.60;;;;;;5107565;28;20028;-78
2021/07/16 01:17:34;;;;;;;17.25;11.32;;;21.80;99.50;;;;;;5105729;28;20043;-79
2021/07/16 01:20:10;;;;;;;15.20;10.88;;;21.70;99.40;;;;;;5106287;28;20027;-80
2021/07/16 01:22:38;;;;;;;;;;;21.70;99.30;;;;;;5107446;28;20087;-82
2021/07/16 01:25:08;;;;;;;14.52;11.27;;;21.70;99.20;;;;;;5107250;28;19908;-79
2021/07/16 01:27:34;;;;;;;18.80;11.50;;;21.70;99.10;;;;;;5105937;28;20031;-79
2021/07/16 01:30:02;;;;;;;17.33;11.13;;;21.70;99.10;;;;;;5105562;28;20032;-79
2021/07/16 01:32:28;;;;;;;16.30;9.80;;;21.60;99.00;;;;;;5105713;28;20500;-80
2021/07/16 01:34:54;;;;;;;19.27;11.48;;;21.60;99.10;;;;;;5106778;28;20028;-82
2021/07/16 01:37:21;;;;;;;24.42;10.48;;;21.60;99.20;;;;;;5105241;28;20027;-77
2021/07/16 01:39:47;;;;;;;12.82;10.30;;;21.50;99.20;;;;;;5106160;28;20072;-84
2021/07/16 01:42:13;;;;;;;17.10;11.18;;;21.60;99.10;;;;;;5106277;28;20380;-85
2021/07/16 01:44:41;;;;;;;17.08;11.40;;;21.50;99.10;;;;;;5107560;28;20028;-83
2021/07/16 01:47:07;;;;;;;19.70;10.52;;;21.40;99.20;;;;;;5106556;28;20039;-87
2021/07/16 01:49:33;;;;;;;16.50;10.38;;;21.40;99.40;;;;;;5106133;28;20185;-85
2021/07/16 01:51:59;;;;;;;17.23;11.30;;;21.30;99.60;;;;;;5106950;28;20114;-85
2021/07/16 01:54:24;;;;;;;19.98;11.95;;;21.30;99.70;;;;;;5106071;28;20152;-84
2021/07/16 01:56:51;;;;;;;19.27;10.82;;;21.20;99.70;;;;;;5105516;28;20100;-82
2021/07/16 01:59:17;;;;;;;15.95;11.45;;;21.20;99.80;;;;;;5105093;28;20395;-82
2021/07/16 02:01:43;;;;;;;20.13;12.10;;;21.20;99.90;;;;;;5105974;28;20031;-82
2021/07/16 02:04:10;;;;;;;16.00;11.45;;;21.10;99.90;;;;;;5105681;28;20024;-82
2021/07/16 02:06:36;;;;;;;14.40;11.00;;;21.00;99.90;;;;;;5106885;28;20050;-83
2021/07/16 02:09:06;;;;;;;15.50;10.38;;;20.90;99.90;;;;;;5106596;28;20499;-84
2021/07/16 02:11:31;;;;;;;15.20;11.30;;;20.90;99.90;;;;;;5105082;28;20027;-85
2021/07/16 02:13:57;;;;;;;14.07;10.57;;;20.90;99.90;;;;;;5107049;28;20638;-83
2021/07/16 02:16:23;;;;;;;14.75;11.25;;;20.80;99.90;;;;;;5106958;28;20452;-84
2021/07/16 02:18:50;;;;;;;14.18;9.98;;;20.80;99.90;;;;;;5106653;28;20547;-83
2021/07/16 02:21:16;;;;;;;14.65;9.00;;;20.70;99.90;;;;;;5105208;28;20028;-85
2021/07/16 02:23:42;;;;;;;13.15;9.57;;;20.60;99.90;;;;;;5104757;28;20023;-85
2021/07/16 02:26:08;;;;;;;14.95;9.52;;;20.60;99.50;;;;;;5106867;28;20024;-83
2021/07/16 02:28:34;;;;;;;22.75;10.35;;;20.50;99.00;;;;;;5107065;28;20040;-84
2021/07/16 02:31:05;;;;;;;18.38;10.18;;;20.40;99.20;;;;;;5106496;28;20047;-86
2021/07/16 02:33:30;;;;;;;18.23;10.32;;;20.30;99.70;;;;;;5105633;28;20035;-81
2021/07/16 02:35:57;;;;;;;17.10;11.32;;;20.30;99.90;;;;;;5106757;28;20036;-82
2021/07/16 02:38:23;;;;;;;15.18;11.85;;;20.20;99.90;;;;;;5107571;28;20409;-76
2021/07/16 02:40:49;;;;;;;15.23;11.02;;;20.10;99.90;;;;;;5110150;28;20522;-79
2021/07/16 02:43:15;;;;;;;23.58;11.25;;;20.00;99.90;;;;;;5110629;28;20030;-80
2021/07/16 02:45:43;;;;;;;21.63;11.38;;;20.00;99.90;;;;;;5108601;28;20028;-78
2021/07/16 02:48:09;;;;;;;13.23;10.43;;;19.90;99.90;;;;;;5110699;28;20028;-83
2021/07/16 02:50:37;;;;;;;13.60;9.57;;;19.90;99.90;;;;;;5108887;28;20030;-84
2021/07/16 02:53:07;;;;;;;15.18;8.82;;;19.90;99.90;;;;;;5108840;28;20037;-83
2021/07/16 02:55:34;;;;;;;20.88;10.43;;;19.80;99.90;;;;;;5110218;28;20054;-85
2021/07/16 02:57:59;;;;;;;13.98;10.45;;;19.80;99.90;;;;;;5108819;28;20030;-85
2021/07/16 03:00:27;;;;;;;14.48;10.15;;;19.80;99.90;;;;;;5109060;28;20027;-80
2021/07/16 03:02:53;;;;;;;13.27;9.55;;;19.80;99.90;;;;;;5110123;28;20110;-83
2021/07/16 03:05:21;;;;;;;19.55;10.88;;;19.80;99.90;;;;;;5107757;28;20611;-83
2021/07/16 03:07:47;;;;;;;16.27;9.90;;;19.80;99.90;;;;;;5107008;28;20022;-82
2021/07/16 03:10:22;;;;;;;13.35;9.43;;;19.80;99.90;;;;;;5108430;28;20517;-86
2021/07/16 03:12:49;;;;;;;12.27;9.38;;;19.90;99.90;;;;;;5110188;28;20023;-83
2021/07/16 03:15:19;;;;;;;20.58;9.20;;;19.90;99.90;;;;;;5108871;28;20036;-83
2021/07/16 03:17:46;;;;;;;16.75;11.15;;;19.90;99.90;;;;;;5109728;28;20055;-81
2021/07/16 03:20:17;;;;;;;15.70;9.23;;;19.90;99.90;;;;;;5109982;28;20051;-83
2021/07/16 03:22:43;;;;;;;20.05;9.63;;;20.00;99.90;;;;;;5109101;28;20020;-84
2021/07/16 03:25:12;;;;;;;19.10;9.63;;;20.00;99.90;;;;;;5108829;28;20035;-79
2021/07/16 03:27:38;;;;;;;22.45;9.35;;;20.00;99.90;;;;;;5106288;28;20019;-78
2021/07/16 03:30:07;;;;;;;15.98;9.73;;;20.10;99.90;;;;;;5107066;28;20019;-84
2021/07/16 03:32:33;;;;;;;19.23;10.73;;;20.00;99.90;;;;;;5107080;28;20060;-84
2021/07/16 03:34:58;;;;;;;13.13;10.15;;;20.10;99.90;;;;;;5108218;28;20023;-83
2021/07/16 03:37:24;;;;;;;15.30;10.13;;;20.10;99.90;;;;;;5107701;28;20111;-85
2021/07/16 03:39:50;;;;;;;13.10;9.23;;;20.10;99.90;;;;;;5106907;28;20023;-81
2021/07/16 03:42:19;;;;;;;12.30;10.52;;;20.10;99.90;;;;;;5107493;28;20028;-83
2021/07/16 03:44:46;;;;;;;13.95;9.48;;;20.20;99.90;;;;;;5107896;28;20152;-83
2021/07/16 03:47:13;;;;;;;16.45;9.88;;;20.20;99.90;;;;;;5109307;28;20024;-83
2021/07/16 03:49:39;;;;;;;13.98;9.38;;;20.30;99.90;;;;;;5106750;28;20035;-77
2021/07/16 03:52:05;;;;;;;13.52;9.70;;;20.40;99.80;;;;;;5107740;28;20047;-82
2021/07/16 03:54:30;;;;;;;17.13;10.07;;;20.50;99.40;;;;;;5106876;28;20526;-78
2021/07/16 03:56:56;;;;;;;19.65;9.43;;;20.50;99.20;;;;;;5107042;28;20048;-82
2021/07/16 03:59:22;;;;;;;15.90;9.55;;;20.60;99.10;;;;;;5107041;28;20442;-79
2021/07/16 04:01:48;;;;;;;16.40;9.30;;;20.60;99.00;;;;;;5107392;28;20066;-83
2021/07/16 04:04:15;;;;;;;14.63;9.85;;;20.70;98.90;;;;;;5107567;28;20051;-83
2021/07/16 04:06:41;;;;;;;26.50;10.18;;;20.80;98.90;;;;;;5106778;28;20028;-84
2021/07/16 04:09:26;;;;;;;17.88;10.07;;;20.80;98.80;;;;;;5107518;28;20032;-81
2021/07/16 04:12:03;;;;;;;20.15;11.55;;;20.90;98.60;;;;;;5107663;28;20081;-81
2021/07/16 04:14:28;;;;;;;19.38;10.57;;;21.00;98.60;;;;;;5107077;28;20047;-82
2021/07/16 04:16:54;;;;;;;20.40;11.50;;;21.00;98.70;;;;;;5108618;28;20488;-82
2021/07/16 04:19:19;;;;;;;17.77;9.55;;;21.00;98.70;;;;;;5106978;28;20015;-83
2021/07/16 04:21:45;;;;;;;16.58;11.38;;;21.10;98.70;;;;;;5108559;28;20556;-82
2021/07/16 04:24:11;;;;;;;14.80;10.50;;;21.10;98.80;;;;;;5107623;28;20027;-80
2021/07/16 04:26:36;;;;;;;21.30;10.82;;;21.10;98.70;;;;;;5106800;28;20119;-81
2021/07/16 04:29:02;;;;;;;15.38;10.20;;;21.20;98.40;;;;;;5108551;28;20066;-79
2021/07/16 04:31:27;;;;;;;19.27;9.25;;;21.20;98.30;;;;;;5107234;28;20037;-82
2021/07/16 04:33:53;;;;;;;15.73;10.02;;;21.30;98.20;;;;;;5107906;28;20065;-82
2021/07/16 04:36:19;;;;;;;21.08;10.23;;;21.40;98.00;;;;;;5106394;28;20048;-80
2021/07/16 04:38:44;;;;;;;16.90;10.50;;;21.50;97.80;;;;;;5107713;28;20027;-76
2021/07/16 04:41:10;;;;;;;19.73;13.23;;;21.60;97.70;;;;;;5108296;28;20035;-82
2021/07/16 04:43:35;;;;;;;15.60;11.05;;;21.60;97.60;;;;;;5107792;28;20073;-81
2021/07/16 04:46:01;;;;;;;16.77;10.13;;;21.70;97.50;;;;;;5107010;28;20448;-80
2021/07/16 04:48:27;;;;;;;17.67;10.90;;;21.80;97.30;;;;;;5106727;28;20024;-80
2021/07/16 04:50:52;;;;;;;18.15;11.52;;;21.80;97.20;;;;;;5106231;28;20027;-81
2021/07/16 04:53:18;;;;;;;19.10;10.98;;;21.80;97.00;;;;;;5106619;28;20051;-80
2021/07/16 04:55:43;;;;;;;15.95;10.57;;;21.90;97.00;;;;;;5106288;28;20138;-78
2021/07/16 04:58:09;;;;;;;17.90;9.90;;;22.00;97.00;;;;;;5106548;28;20496;-78
2021/07/16 05:00:35;;;;;;;19.63;10.90;;;22.20;96.80;;;;;;5107022;28;20053;-81
2021/07/16 05:03:01;;;;;;;13.70;9.57;;;22.40;96.50;;;;;;5105825;28;20036;-82
2021/07/16 05:05:26;;;;;;;17.45;9.95;;;22.70;96.20;;;;;;5105546;28;20027;-80
2021/07/16 05:07:52;;;;;;;12.38;9.38;;;23.00;95.60;;;;;;5106423;28;20521;-80
2021/07/16 05:10:18;;;;;;;32.25;10.38;;;23.30;95.00;;;;;;5107074;28;20039;-79
2021/07/16 05:12:44;;;;;;;15.40;10.18;;;23.50;94.20;;;;;;5107661;28;20046;-78
2021/07/16 05:15:10;;;;;;;15.23;8.93;;;23.90;93.90;;;;;;5106244;28;20404;-80
2021/07/16 05:17:36;;;;;;;12.15;8.98;;;24.10;93.10;;;;;;5107091;28;20039;-79
2021/07/16 05:20:05;;;;;;;21.23;9.05;;;24.40;92.40;;;;;;5105445;28;20038;-79
2021/07/16 05:22:30;;;;;;;17.33;9.18;;;24.60;91.90;;;;;;5105741;28;20454;-81
2021/07/16 05:24:56;;;;;;;18.50;7.72;;;24.80;91.50;;;;;;5107156;28;20111;-80
2021/07/16 05:27:22;;;;;;;15.45;8.52;;;25.00;90.90;;;;;;5107241;28;20103;-80
2021/07/16 05:29:47;;;;;;;20.02;8.50;;;25.20;90.20;;;;;;5104151;28;20032;-79
2021/07/16 05:32:13;;;;;;;14.35;8.05;;;25.40;88.50;;;;;;5104671;28;20084;-80
2021/07/16 05:34:38;;;;;;;10.70;7.18;;;25.60;87.70;;;;;;5104557;28;20555;-79
2021/07/16 05:37:04;;;;;;;14.07;7.25;;;26.00;87.00;;;;;;5105613;28;20127;-79
2021/07/16 05:39:30;;;;;;;11.02;7.80;;;26.30;85.20;;;;;;5105721;28;20016;-78
2021/07/16 05:41:56;;;;;;;13.32;6.68;;;26.60;83.70;;;;;;5104507;28;20032;-79
2021/07/16 05:44:21;;;;;;;10.02;7.20;;;26.90;81.80;;;;;;5105898;28;20031;-79
2021/07/16 05:46:47;;;;;;;13.35;8.25;;;27.10;80.20;;;;;;5105611;28;20038;-79
2021/07/16 05:49:12;;;;;;;13.77;7.50;;;27.20;79.20;;;;;;5105557;28;20612;-81
2021/07/16 05:51:38;;;;;;;14.25;7.43;;;27.40;78.70;;;;;;5106451;28;20076;-81
2021/07/16 05:54:03;;;;;;;10.90;7.30;;;27.50;78.40;;;;;;5105145;28;20119;-79
2021/07/16 05:56:29;;;;;;;16.40;7.40;;;27.80;78.00;;;;;;5105268;28;20829;-80
2021/07/16 05:58:55;;;;;;;12.32;7.57;;;28.00;77.30;;;;;;5105177;28;20023;-80
2021/07/16 06:01:20;;;;;;;13.98;7.32;;;28.30;76.00;;;;;;5105144;28;20506;-80
2021/07/16 06:03:46;;;;;;;10.43;7.10;;;28.70;74.10;;;;;;5105325;28;20019;-79
2021/07/16 06:06:12;;;;;;;10.82;6.55;;;29.10;71.50;;;;;;5106074;28;20080;-80
2021/07/16 06:08:37;;;;;;;13.00;7.93;;;29.60;69.60;;;;;;5106826;28;20027;-80
2021/07/16 06:11:03;;;;;;;12.15;6.97;;;29.90;67.90;;;;;;5105359;28;20541;-81
2021/07/16 06:13:28;;;;;;;13.70;7.00;;;30.10;66.50;;;;;;5109857;28;20031;-80
2021/07/16 06:15:54;;;;;;;15.18;6.60;;;30.60;64.70;;;;;;5110336;28;20039;-79
2021/07/16 06:18:22;;;;;;;16.20;7.30;;;30.90;63.10;;;;;;5110617;28;20015;-80
2021/07/16 06:20:48;;;;;;;14.18;7.63;;;31.40;61.60;;;;;;5109745;28;20028;-80
2021/07/16 06:23:16;;;;;;;17.35;6.53;;;31.60;60.60;;;;;;5109830;28;20024;-80
2021/07/16 06:25:42;;;;;;;17.65;7.00;;;32.10;58.80;;;;;;5110244;28;20538;-81
2021/07/16 06:28:08;;;;;;;11.95;7.18;;;32.50;57.20;;;;;;5108924;28;20027;-80
2021/07/16 06:30:34;;;;;;;18.25;7.57;;;32.80;56.10;;;;;;5109976;28;20035;-81
2021/07/16 06:32:59;;;;;;;14.77;6.78;;;33.00;55.60;;;;;;5110128;28;20503;-81
2021/07/16 06:35:25;;;;;;;20.25;8.32;;;33.00;56.20;;;;;;5108846;28;20583;-81
2021/07/16 06:37:51;;;;;;;13.07;7.00;;;33.10;55.00;;;;;;5109071;28;20048;-80
2021/07/16 06:40:16;;;;;;;18.15;7.38;;;33.40;54.80;;;;;;5110341;28;20024;-80
2021/07/16 06:42:42;;;;;;;13.27;6.35;;;33.80;53.70;;;;;;5110435;28;20031;-81
2021/07/16 06:45:08;;;;;;;12.98;7.43;;;34.00;52.70;;;;;;5108693;28;20164;-81
2021/07/16 06:47:33;;;;;;;18.33;7.60;;;34.30;52.10;;;;;;5110517;28;20042;-81
2021/07/16 06:49:59;;;;;;;10.77;6.60;;;34.60;51.40;;;;;;5108532;28;20035;-81
2021/07/16 06:52:25;;;;;;;24.63;7.13;;;34.80;50.30;;;;;;5109735;28;20035;-80
2021/07/16 06:54:50;;;;;;;14.38;6.80;;;35.10;49.60;;;;;;5108623;28;20081;-80
2021/07/16 06:57:16;;;;;;;15.55;6.90;;;35.40;49.10;;;;;;5109686;28;20092;-79
2021/07/16 06:59:42;;;;;;;14.48;7.10;;;35.70;48.30;;;;;;5107182;28;20056;-79
2021/07/16 07:02:08;;;;;;;10.02;6.60;;;35.80;47.80;;;;;;5108253;28;20552;-79
2021/07/16 07:04:34;;;;;;;20.48;6.80;;;35.80;46.70;;;;;;5109310;28;20049;-81
2021/07/16 07:06:59;;;;;;;14.75;6.32;;;35.90;46.60;;;;;;5109234;28;20027;-79
2021/07/16 07:09:25;;;;;;;21.02;7.55;;;35.90;46.90;;;;;;5109157;28;20379;-79
2021/07/16 07:11:51;;;;;;;15.88;7.28;;;35.80;47.00;;;;;;5108668;28;20096;-81
2021/07/16 07:14:16;;;;;;;17.42;7.63;;;35.80;48.00;;;;;;5108584;28;20407;-79
2021/07/16 07:16:42;;;;;;;12.43;7.13;;;36.10;47.00;;;;;;5109082;28;20032;-80
2021/07/16 07:19:08;;;;;;;15.60;7.05;;;36.40;46.40;;;;;;5106848;28;20020;-80
2021/07/16 07:21:33;;;;;;;15.43;6.75;;;36.40;45.90;;;;;;5108564;28;20027;-80
2021/07/16 07:23:59;;;;;;;15.27;6.63;;;36.10;45.80;;;;;;5108020;28;20038;-80
2021/07/16 07:26:26;;;;;;;17.42;7.35;;;36.10;46.10;;;;;;5105899;28;20045;-81
2021/07/16 07:28:51;;;;;;;12.38;6.47;;;36.30;45.70;;;;;;5106714;28;20099;-81
2021/07/16 07:31:17;;;;;;;15.15;7.18;;;36.00;46.20;;;;;;5108070;28;20106;-80
2021/07/16 07:33:43;;;;;;;15.57;6.82;;;35.50;46.90;;;;;;5108822;28;20035;-80
2021/07/16 07:36:08;;;;;;;16.73;7.82;;;35.60;46.90;;;;;;5107163;28;20077;-81
2021/07/16 07:38:35;;;;;;;17.27;7.13;;;35.30;47.50;;;;;;5109044;28;20030;-80
2021/07/16 07:41:01;;;;;;;20.52;7.32;;;34.90;48.30;;;;;;5108018;28;20019;-79
2021/07/16 07:43:27;;;;;;;14.57;7.72;;;35.10;47.10;;;;;;5108103;28;20032;-81
2021/07/16 07:45:54;;;;;;;16.05;6.47;;;34.80;48.10;;;;;;5102852;28;20034;-79
2021/07/16 07:48:20;;;;;;;20.25;7.35;;;35.10;48.50;;;;;;5106584;28;20077;-79
2021/07/16 07:50:46;;;;;;;12.75;6.97;;;35.00;48.90;;;;;;5107667;28;20023;-78
2021/07/16 07:53:11;;;;;;;15.48;6.65;;;34.90;49.60;;;;;;5106645;28;20404;-80
2021/07/16 07:55:37;;;;;;;12.40;7.07;;;35.10;49.30;;;;;;5107435;28;20557;-81
2021/07/16 07:58:03;;;;;;;14.55;6.85;;;35.20;48.40;;;;;;5106512;28;20487;-80
2021/07/16 08:00:29;;;;;;;18.27;6.75;;;35.20;48.70;;;;;;5107070;28;20035;-81
2021/07/16 08:02:55;;;;;;;14.55;6.10;;;35.20;48.60;;;;;;5107253;28;20023;-79
2021/07/16 08:05:21;;;;;;;11.27;5.80;;;35.20;48.30;;;;;;5107483;28;20023;-78
2021/07/16 08:07:47;;;;;;;15.23;6.93;;;35.20;48.50;;;;;;5107468;28;20035;-80
2021/07/16 08:10:17;;;;;;;26.20;7.72;;;35.20;48.20;;;;;;5109964;27;20030;-80
2021/07/16 08:12:43;;;;;;;14.27;6.53;;;35.20;48.60;;;;;;5108330;28;20062;-80
2021/07/16 08:15:10;;;;;;;13.43;7.13;;;35.30;48.50;;;;;;5108666;28;20118;-81
2021/07/16 08:17:36;;;;;;;15.70;7.10;;;35.30;47.70;;;;;;5106982;28;20047;-81
2021/07/16 08:20:04;;;;;;;12.70;6.78;;;35.40;48.10;;;;;;5108158;28;20024;-80
2021/07/16 08:22:30;;;;;;;12.15;6.55;;;35.20;48.00;;;;;;5108057;28;20515;-80
2021/07/16 08:24:55;;;;;;;11.50;5.82;;;35.30;49.20;;;;;;5107131;28;20020;-81
2021/07/16 08:27:21;;;;;;;13.60;7.32;;;35.50;48.20;;;;;;5108123;28;20039;-80
2021/07/16 08:29:46;;;;;;;15.73;6.93;;;35.50;46.60;;;;;;5108185;28;20618;-81
2021/07/16 08:32:12;;;;;;;13.52;6.50;;;35.10;47.60;;;;;;5108174;28;20031;-79
2021/07/16 08:34:38;;;;;;;14.23;6.40;;;34.90;48.80;;;;;;5106838;28;20027;-81
2021/07/16 08:37:03;;;;;;;12.50;5.97;;;35.30;48.20;;;;;;5106992;28;20079;-81
2021/07/16 08:39:29;;;;;;;14.32;7.00;;;35.70;47.40;;;;;;5107859;28;20257;-80
2021/07/16 08:41:56;;;;;;;12.27;6.25;;;36.10;46.70;;;;;;5107869;28;20364;-80
2021/07/16 08:44:22;;;;;;;10.88;5.95;;;36.40;46.80;;;;;;5108155;28;20020;-80
2021/07/16 08:46:48;;;;;;;13.13;6.35;;;36.70;46.00;;;;;;5108013;28;20031;-81
2021/07/16 08:49:16;;;;;;;13.77;7.10;;;37.30;43.90;;;;;;5107174;28;20042;-80
2021/07/16 08:51:43;;;;;;;12.00;6.07;;;37.50;44.00;;;;;;5105437;28;20028;-81
2021/07/16 08:54:13;;;;;;;17.48;5.93;;;37.70;43.90;;;;;;5106783;28;20034;-80
2021/07/16 08:56:39;;;;;;;9.25;6.25;;;38.20;42.20;;;;;;5106101;28;20059;-81
2021/07/16 08:59:07;;;;;;;16.38;6.82;;;38.30;42.00;;;;;;5106329;28;20024;-80
2021/07/16 09:01:33;;;;;;;10.88;6.57;;;38.50;42.50;;;;;;5107709;28;20031;-81
2021/07/16 09:04:04;;;;;;;16.27;6.57;;;38.80;41.70;;;;;;5106968;28;20024;-81
2021/07/16 09:06:49;;;;;;;11.40;6.32;;;38.70;40.90;;;;;;5106364;28;20026;-81
2021/07/16 09:09:18;;;;;;;18.08;6.20;;;39.10;41.40;;;;;;5105998;28;20032;-81
2021/07/16 09:11:46;;;;;;;9.18;6.50;;;39.50;40.30;;;;;;5106281;28;20051;-81
2021/07/16 09:14:17;;;;;;;21.63;6.22;;;39.50;39.60;;;;;;5107189;28;20050;-80
2021/07/16 09:17:01;;;;;;;15.35;6.35;;;39.20;39.70;;;;;;5106256;28;20762;-80
2021/07/16 09:19:52;;;;;;;12.27;5.93;;;39.00;40.40;;;;;;5105636;28;20020;-80
2021/07/16 09:22:20;;;;;;;14.38;6.35;;;38.60;41.00;;;;;;5107268;28;20023;-80
2021/07/16 09:24:56;;;;;;;14.55;6.70;;;38.00;42.00;;;;;;5106837;28;20099;-79
2021/07/16 09:27:35;;;;;;;9.60;6.18;;;37.40;43.00;;;;;;5105287;28;20032;-80
2021/07/16 09:30:18;;;;;;;14.63;6.28;;;37.00;43.60;;;;;;5107248;28;20046;-80
2021/07/16 09:33:15;;;;;;;16.65;6.30;;;36.60;44.00;;;;;;5105749;28;20024;-80
2021/07/16 09:35:41;;;;;;;11.60;6.28;;;36.40;44.80;;;;;;5106021;28;20488;-78
2021/07/16 09:38:12;;;;;;;9.57;6.43;;;36.30;44.70;;;;;;5107246;28;20027;-79
2021/07/16 09:40:40;;;;;;;12.77;6.72;;;36.40;44.40;;;;;;5106638;28;20450;-80
2021/07/16 09:43:11;;;;;;;11.98;6.40;;;36.10;45.10;;;;;;5107075;28;20027;-79
2021/07/16 09:46:01;;;;;;;23.00;7.82;;;36.20;44.20;;;;;;5106766;28;20028;-80
2021/07/16 09:48:33;;;;;;;11.35;6.20;;;36.30;44.40;;;;;;5104736;28;20028;-81
2021/07/16 09:51:25;;;;;;;11.88;7.03;;;36.20;44.90;;;;;;5106918;28;20036;-80
2021/07/16 09:54:02;;;;;;;18.00;6.72;;;36.10;45.00;;;;;;5107038;28;20035;-80
2021/07/16 09:56:36;;;;;;;12.50;5.93;;;35.70;45.70;;;;;;5106580;28;20055;-80
2021/07/16 09:59:09;;;;;;;13.82;7.18;;;35.20;46.00;;;;;;5106216;28;20463;-79
2021/07/16 10:01:40;;;;;;;22.75;6.97;;;34.80;47.20;;;;;;5106351;28;20379;-79
2021/07/16 10:04:16;;;;;;;14.95;6.75;;;34.50;47.50;;;;;;5104298;28;20464;-80
2021/07/16 10:06:43;;;;;;;15.35;7.25;;;34.00;49.00;;;;;;5106315;28;20024;-79
2021/07/16 10:09:09;;;;;;;12.65;7.68;;;33.70;48.90;;;;;;5106509;28;20031;-79
2021/07/16 10:11:36;;;;;;;16.27;7.47;;;33.50;49.50;;;;;;5106538;28;20031;-80
2021/07/16 10:14:03;;;;;;;14.55;6.32;;;33.20;50.60;;;;;;5105265;28;20395;-79
2021/07/16 10:16:29;;;;;;;11.50;7.00;;;33.20;50.30;;;;;;5106439;28;20034;-79
2021/07/16 10:18:55;;;;;;;16.08;6.70;;;33.00;51.50;;;;;;5105992;28;20024;-79
2021/07/16 10:21:22;;;;;;;13.90;7.45;;;32.80;52.30;;;;;;5096015;28;20504;-77
2021/07/16 10:23:52;;;;;;;12.57;7.55;;;32.80;52.70;;;;;;5095745;28;20023;-78
2021/07/16 10:26:21;;;;;;;17.45;6.90;;;32.60;52.30;;;;;;5105937;28;20078;-78
2021/07/16 10:28:47;;;;;;;15.57;7.45;;;32.50;53.40;;;;;;5105822;28;20027;-79
2021/07/16 10:31:28;;;;;;;14.25;7.78;;;32.20;54.00;;;;;;5105476;28;20032;-79
2021/07/16 10:33:55;;;;;;;12.18;7.57;;;32.10;54.70;;;;;;5105056;28;20042;-77
2021/07/16 10:36:39;;;;;;;17.73;7.60;;;32.10;54.60;;;;;;5106325;28;20039;-76
2021/07/16 10:39:08;;;;;;;9.05;6.10;;;32.10;54.40;;;;;;5106343;28;20016;-79
2021/07/16 10:41:35;;;;;;;15.00;6.85;;;32.10;54.50;;;;;;5106539;28;20109;-78
2021/07/16 10:44:02;;;;;;;15.88;6.72;;;32.10;55.10;;;;;;5106462;28;20058;-79
2021/07/16 10:46:31;;;;;;;12.27;6.57;;;32.10;54.80;;;;;;5105941;28;20028;-79
2021/07/16 10:48:57;;;;;;;9.38;6.68;;;32.10;54.70;;;;;;5104627;28;20042;-79
2021/07/16 10:51:28;;;;;;;12.98;6.25;;;32.20;54.90;;;;;;5105967;28;20024;-78
2021/07/16 10:53:55;;;;;;;14.93;5.97;;;32.50;54.30;;;;;;5105993;28;20094;-80
2021/07/16 10:56:43;;;;;;;13.95;6.40;;;32.80;54.40;;;;;;5104355;28;20044;-79
2021/07/16 10:59:09;;;;;;;14.40;5.60;;;33.00;52.30;;;;;;5105267;28;20455;-78
2021/07/16 11:01:41;;;;;;;9.35;5.70;;;33.00;52.20;;;;;;5108211;28;20072;-79
2021/07/16 11:04:33;;;;;;;11.90;5.60;;;33.10;52.40;;;;;;5109937;28;20031;-77
2021/07/16 11:06:59;;;;;;;9.35;5.47;;;33.40;52.10;;;;;;5106579;28;20055;-78
2021/07/16 11:09:34;;;;;;;19.15;7.10;;;33.40;51.30;;;;;;5105904;28;20039;-77
2021/07/16 11:12:20;;;;;;;9.50;5.15;;;33.50;48.20;;;;;;5108191;28;20063;-78
2021/07/16 11:14:46;;;;;;;12.88;5.03;;;33.40;47.80;;;;;;5105605;28;20730;-78
2021/07/16 11:17:24;;;;;;;8.52;4.43;;;33.40;47.70;;;;;;5107505;28;20039;-78
2021/07/16 11:20:13;;;;;;;16.52;5.82;;;32.80;44.40;;;;;;5105236;28;20163;-78
2021/07/16 11:22:54;;;;;;;11.48;5.25;;;32.10;48.00;;;;;;5106255;28;20035;-78
2021/07/16 11:25:20;;;;;;;9.65;4.15;;;31.50;47.40;;;;;;5107443;28;20035;-80
2021/07/16 11:27:45;;;;;;;11.93;4.22;;;30.80;45.50;;;;;;5107660;28;20040;-80
2021/07/16 11:30:12;;;;;;;9.77;4.75;;;30.30;47.40;;;;;;5108387;28;20032;-78
2021/07/16 11:32:38;;;;;;;12.23;4.63;;;29.90;47.30;;;;;;5107853;28;20084;-78
2021/07/16 11:35:06;;;;;;;12.05;4.95;;;29.40;48.70;;;;;;5108984;28;20047;-79
2021/07/16 11:37:48;;;;;;;9.15;4.70;;;29.10;50.00;;;;;;5107181;28;20039;-80
2021/07/16 11:40:21;;;;;;;7.57;4.20;;;28.90;50.50;;;;;;5107917;28;20106;-77
2021/07/16 11:42:51;;;;;;;14.68;4.50;;;28.70;51.60;;;;;;5105223;28;20032;-78
2021/07/16 11:45:25;;;;;;;5.97;4.40;;;28.60;52.10;;;;;;5108862;28;20032;-80
2021/07/16 11:47:53;;;;;;;10.68;4.28;;;28.30;52.90;;;;;;5105191;28;20089;-76
2021/07/16 11:50:19;;;;;;;7.88;4.65;;;28.30;53.50;;;;;;5107476;28;20024;-79
2021/07/16 11:52:49;;;;;;;11.35;4.80;;;28.20;53.60;;;;;;5108893;28;20051;-78
2021/07/16 11:55:15;;;;;;;11.30;4.72;;;28.00;55.90;;;;;;5107303;28;20039;-78
2021/07/16 11:57:54;;;;;;;8.80;5.40;;;27.90;57.10;;;;;;5107049;28;20420;-77
2021/07/16 12:00:25;;;;;;;8.23;4.25;;;27.60;58.40;;;;;;5106854;28;20475;-79
2021/07/16 12:02:58;;;;;;;6.15;4.70;;;27.40;59.20;;;;;;5105171;28;20111;-78
2021/07/16 12:05:25;;;;;;;21.40;7.00;;;27.30;59.80;;;;;;5108223;28;20120;-78
2021/07/16 12:07:50;;;;;;;17.90;6.45;;;27.20;63.30;;;;;;5108896;28;20107;-78
2021/07/16 12:10:18;;;;;;;30.25;7.70;;;27.10;68.20;;;;;;5108488;28;20135;-79
2021/07/16 12:12:44;;;;;;;26.00;8.32;;;26.90;73.50;;;;;;5108814;28;20027;-80
2021/07/16 12:15:30;;;;;;;34.33;8.77;;;26.70;74.10;;;;;;5106932;28;20068;-80
2021/07/16 12:17:58;;;;;;;23.95;8.70;;;26.20;80.30;;;;;;5107704;28;20174;-79
2021/07/16 12:20:35;;;;;;;26.95;7.85;;;25.50;83.90;;;;;;5106363;28;20036;-81
2021/07/16 12:23:09;;;;;;;18.35;8.30;;;25.10;90.30;;;;;;5104543;28;20031;-83
2021/07/16 12:25:37;;;;;;;12.90;6.72;;;24.90;91.40;;;;;;5104962;28;20130;-82
2021/07/16 12:28:18;;;;;;;16.65;8.18;;;24.70;92.50;;;;;;5107402;28;20019;-79
2021/07/16 12:30:44;;;;;;;16.92;7.35;;;24.60;93.80;;;;;;5104553;28;20027;-82
2021/07/16 12:33:11;;;;;;;16.48;7.80;;;24.40;94.60;;;;;;5107015;28;20043;-79
2021/07/16 12:35:42;;;;;;;20.23;7.40;;;24.10;93.70;;;;;;5088824;28;20415;-82
2021/07/16 12:38:13;;;;;;;19.23;6.97;;;23.70;94.50;;;;;;5103244;28;20050;-84
2021/07/16 12:40:44;;;;;;;13.80;7.25;;;23.30;95.50;;;;;;5105906;28;20072;-83